Decoded Metar for KEKX (ELIZABETH in KY, USA) (IATA:EKX) | Meteo·Mobile Aviation Weather
aviador You're here:

KEKX Decoded Metar

ELIZABETH in KY, USA
Report Time2020-02-25 21:15:00
UTC Time2020-02-25 21:14:30
Flight Rules mvfr MVFR
Wind290° at 07 kt
W.Decomp.*RWY 23: 3.2 kt HW 6.2 kt RCW
Visibility9999 m
Phenomena:N/A
Clouds:Scattered 008 Hf
Broken 016 Hf
Overcast 030 Hf
Expected CloudBase > 400 ft AGL from Temp-Dew spread
Ceiling1,600 ft
Temp10°C (ISA -4)
Dew Point09°C (94% RH)
AAT7.3°C
QNH1009 hPa
Density Alt630 ft
Elevation755 ft
Report Wrong Elevation
Raw Report
METAR KEKX 252115Z AUTO 29007KT 10SM SCT008 BKN016 OVC030 10/09 A2980
RMK AO2 T00990092=

Extra information for KEKX:More info

Airport Information Weather charts Add Link Nearby Venues Social comments

AIRNAV info for KEKX